AMR471 KBFI-KBZN
Flight info
| Callsign | AMR471 |
|---|---|
| Flight time | 1h 29m |
| Altitude | 35000 |
| Route | NORMY J90 MWH EATZZ EATZZ1 |
| Aircraft | C550/L-SDFGHRWY/S |
Departure
| Time | 2026-04-28 14:38 |
|---|---|
| Airport | King County International Airport - Boeing Field (KBFI) |
Arrival
| Time | 2026-04-28 16:07 |
|---|---|
| Airport | Bozeman Yellowstone International Airport (KBZN) |
| Time | Latitude | Longitude | Altitude | Speed | Heading |
|---|---|---|---|---|---|
| 2026-04-28 14:04 | 47.52153 | -122.29266 | 22 ft | 0 kts | 63° |
| 2026-04-28 14:18 | 47.52153 | -122.29265 | 22 ft | 0 kts | 63° |
| 2026-04-28 14:21 | 47.52153 | -122.29264 | 22 ft | 0 kts | 63° |
| 2026-04-28 14:21 | 47.52154 | -122.29264 | 22 ft | 0 kts | 63° |
| 2026-04-28 14:24 | 47.52154 | -122.29263 | 22 ft | 0 kts | 63° |
| 2026-04-28 14:26 | 47.52154 | -122.29262 | 22 ft | 0 kts | 63° |
| 2026-04-28 14:29 | 47.52155 | -122.29262 | 22 ft | 0 kts | 63° |
| 2026-04-28 14:29 | 47.52155 | -122.29261 | 22 ft | 0 kts | 63° |
| 2026-04-28 14:31 | 47.52156 | -122.29258 | 22 ft | 1 kts | 48° |
| 2026-04-28 14:31 | 47.52162 | -122.29257 | 22 ft | 1 kts | 338° |
| 2026-04-28 14:31 | 47.52165 | -122.29265 | 22 ft | 1 kts | 271° |
| 2026-04-28 14:31 | 47.52164 | -122.29280 | 22 ft | 2 kts | 263° |
| 2026-04-28 14:32 | 47.52161 | -122.29311 | 22 ft | 4 kts | 263° |
| 2026-04-28 14:32 | 47.52161 | -122.29315 | 22 ft | 0 kts | 263° |
| 2026-04-28 14:33 | 47.52161 | -122.29316 | 22 ft | 0 kts | 263° |
| 2026-04-28 14:34 | 47.52157 | -122.29350 | 22 ft | 7 kts | 256° |
| 2026-04-28 14:34 | 47.52166 | -122.29422 | 22 ft | 7 kts | 328° |
| 2026-04-28 14:35 | 47.52212 | -122.29447 | 22 ft | 7 kts | 333° |
| 2026-04-28 14:35 | 47.52225 | -122.29457 | 22 ft | 2 kts | 332° |
| 2026-04-28 14:35 | 47.52275 | -122.29498 | 22 ft | 15 kts | 330° |
| 2026-04-28 14:35 | 47.52378 | -122.29586 | 22 ft | 17 kts | 330° |
| 2026-04-28 14:36 | 47.52477 | -122.29670 | 22 ft | 15 kts | 331° |
| 2026-04-28 14:36 | 47.52565 | -122.29743 | 22 ft | 14 kts | 330° |
| 2026-04-28 14:36 | 47.52638 | -122.29805 | 22 ft | 9 kts | 330° |
| 2026-04-28 14:36 | 47.52668 | -122.29864 | 22 ft | 5 kts | 244° |
| 2026-04-28 14:37 | 47.52663 | -122.29876 | 22 ft | 0 kts | 239° |
| 2026-04-28 14:37 | 47.52652 | -122.29905 | 22 ft | 8 kts | 239° |
| 2026-04-28 14:37 | 47.52605 | -122.29944 | 22 ft | 9 kts | 154° |
| 2026-04-28 14:38 | 47.52487 | -122.29845 | 22 ft | 49 kts | 151° |
| 2026-04-28 14:38 | 47.51967 | -122.29415 | 38 ft | 117 kts | 151° |
| 2026-04-28 14:38 | 47.51150 | -122.28805 | 425 ft | 138 kts | 153° |
| 2026-04-28 14:38 | 47.50264 | -122.28091 | 1032 ft | 155 kts | 149° |
| 2026-04-28 14:39 | 47.49381 | -122.27078 | 1686 ft | 171 kts | 130° |
| 2026-04-28 14:39 | 47.48761 | -122.25418 | 2152 ft | 193 kts | 107° |
| 2026-04-28 14:39 | 47.48618 | -122.23452 | 2758 ft | 199 kts | 84° |
| 2026-04-28 14:39 | 47.48732 | -122.21306 | 3075 ft | 221 kts | 88° |
| 2026-04-28 14:40 | 47.48692 | -122.19074 | 3547 ft | 210 kts | 94° |
| 2026-04-28 14:40 | 47.48576 | -122.17684 | 3877 ft | 202 kts | 99° |
| 2026-04-28 14:40 | 47.48133 | -122.15009 | 4198 ft | 206 kts | 108° |
| 2026-04-28 14:40 | 47.47600 | -122.12981 | 4250 ft | 217 kts | 114° |
| 2026-04-28 14:41 | 47.46903 | -122.10976 | 4417 ft | 219 kts | 120° |
| 2026-04-28 14:41 | 47.46083 | -122.09115 | 4743 ft | 213 kts | 126° |
| 2026-04-28 14:41 | 47.45159 | -122.07434 | 5052 ft | 209 kts | 132° |
| 2026-04-28 14:41 | 47.44122 | -122.05908 | 5238 ft | 212 kts | 138° |
| 2026-04-28 14:42 | 47.43081 | -122.04322 | 5355 ft | 218 kts | 129° |
| 2026-04-28 14:42 | 47.42405 | -122.02262 | 5152 ft | 236 kts | 103° |
| 2026-04-28 14:42 | 47.42160 | -121.99856 | 5162 ft | 238 kts | 94° |
| 2026-04-28 14:42 | 47.42204 | -121.97525 | 5760 ft | 214 kts | 83° |
| 2026-04-28 14:43 | 47.42391 | -121.95443 | 6315 ft | 198 kts | 81° |
| 2026-04-28 14:43 | 47.42607 | -121.93415 | 6448 ft | 205 kts | 80° |
| 2026-04-28 14:43 | 47.42840 | -121.91310 | 6681 ft | 209 kts | 80° |
| 2026-04-28 14:43 | 47.43084 | -121.89139 | 7069 ft | 219 kts | 80° |
| 2026-04-28 14:44 | 47.43343 | -121.86878 | 7453 ft | 227 kts | 80° |
| 2026-04-28 14:44 | 47.43612 | -121.84567 | 7832 ft | 234 kts | 80° |
| 2026-04-28 14:44 | 47.43846 | -121.82135 | 8216 ft | 240 kts | 85° |
| 2026-04-28 14:44 | 47.43901 | -121.79650 | 8595 ft | 244 kts | 92° |
| 2026-04-28 14:45 | 47.43759 | -121.77208 | 8965 ft | 241 kts | 98° |
| 2026-04-28 14:45 | 47.43492 | -121.74772 | 9339 ft | 239 kts | 99° |
| 2026-04-28 14:45 | 47.43292 | -121.72316 | 9719 ft | 242 kts | 96° |
| 2026-04-28 14:45 | 47.43151 | -121.69834 | 10095 ft | 243 kts | 95° |
| 2026-04-28 14:46 | 47.43048 | -121.67344 | 10470 ft | 243 kts | 94° |
| 2026-04-28 14:46 | 47.42968 | -121.64847 | 10845 ft | 243 kts | 94° |
| 2026-04-28 14:46 | 47.42902 | -121.62354 | 11220 ft | 243 kts | 93° |
| 2026-04-28 14:46 | 47.42847 | -121.59864 | 11594 ft | 243 kts | 93° |
| 2026-04-28 14:47 | 47.42798 | -121.57374 | 11969 ft | 243 kts | 93° |
| 2026-04-28 14:47 | 47.42753 | -121.54883 | 12343 ft | 242 kts | 93° |
| 2026-04-28 14:47 | 47.42711 | -121.52396 | 12718 ft | 242 kts | 93° |
| 2026-04-28 14:47 | 47.42670 | -121.49917 | 13093 ft | 241 kts | 92° |
| 2026-04-28 14:48 | 47.42631 | -121.47452 | 13466 ft | 240 kts | 92° |
| 2026-04-28 14:48 | 47.42592 | -121.44998 | 13840 ft | 239 kts | 92° |
| 2026-04-28 14:48 | 47.42554 | -121.42533 | 14217 ft | 241 kts | 92° |
| 2026-04-28 14:48 | 47.42515 | -121.40066 | 14591 ft | 245 kts | 92° |
| 2026-04-28 14:49 | 47.42475 | -121.37521 | 14971 ft | 250 kts | 92° |
| 2026-04-28 14:49 | 47.42434 | -121.34944 | 15349 ft | 253 kts | 92° |
| 2026-04-28 14:49 | 47.42392 | -121.32328 | 15727 ft | 256 kts | 92° |
| 2026-04-28 14:49 | 47.42349 | -121.29689 | 16105 ft | 258 kts | 92° |
| 2026-04-28 14:50 | 47.42306 | -121.27027 | 16482 ft | 260 kts | 92° |
| 2026-04-28 14:50 | 47.42262 | -121.24345 | 16859 ft | 261 kts | 92° |
| 2026-04-28 14:50 | 47.42217 | -121.21661 | 17235 ft | 262 kts | 92° |
| 2026-04-28 14:50 | 47.42171 | -121.18971 | 17611 ft | 262 kts | 92° |
| 2026-04-28 14:51 | 47.42125 | -121.16272 | 17987 ft | 263 kts | 92° |
| 2026-04-28 14:51 | 47.42079 | -121.13612 | 18357 ft | 263 kts | 92° |
| 2026-04-28 14:51 | 47.42031 | -121.10902 | 18733 ft | 264 kts | 92° |
| 2026-04-28 14:51 | 47.41983 | -121.08180 | 19097 ft | 266 kts | 92° |
| 2026-04-28 14:52 | 47.41933 | -121.05443 | 19449 ft | 268 kts | 92° |
| 2026-04-28 14:52 | 47.41882 | -121.02684 | 19793 ft | 269 kts | 92° |
| 2026-04-28 14:52 | 47.41831 | -120.99903 | 20123 ft | 271 kts | 93° |
| 2026-04-28 14:52 | 47.41778 | -120.97116 | 20449 ft | 273 kts | 92° |
| 2026-04-28 14:53 | 47.41724 | -120.94310 | 20766 ft | 274 kts | 92° |
| 2026-04-28 14:53 | 47.41670 | -120.91517 | 21067 ft | 276 kts | 92° |
| 2026-04-28 14:53 | 47.41615 | -120.88677 | 21368 ft | 277 kts | 93° |
| 2026-04-28 14:53 | 47.41558 | -120.85835 | 21669 ft | 278 kts | 93° |
| 2026-04-28 14:54 | 47.41501 | -120.82974 | 21943 ft | 279 kts | 93° |
| 2026-04-28 14:54 | 47.41442 | -120.80097 | 22199 ft | 282 kts | 93° |
| 2026-04-28 14:54 | 47.41382 | -120.77199 | 22437 ft | 284 kts | 93° |
| 2026-04-28 14:54 | 47.41321 | -120.74262 | 22646 ft | 288 kts | 93° |
| 2026-04-28 14:55 | 47.41258 | -120.71289 | 22850 ft | 292 kts | 93° |
| 2026-04-28 14:55 | 47.41193 | -120.68277 | 23052 ft | 296 kts | 93° |
| 2026-04-28 14:55 | 47.41127 | -120.65218 | 23255 ft | 300 kts | 93° |
| 2026-04-28 14:55 | 47.41059 | -120.62116 | 23458 ft | 305 kts | 93° |
| 2026-04-28 14:56 | 47.40989 | -120.58966 | 23661 ft | 309 kts | 93° |
| 2026-04-28 14:56 | 47.40917 | -120.55764 | 23863 ft | 314 kts | 93° |
| 2026-04-28 14:56 | 47.40843 | -120.52513 | 24066 ft | 319 kts | 93° |
| 2026-04-28 14:56 | 47.40767 | -120.49219 | 24269 ft | 324 kts | 93° |
| 2026-04-28 14:57 | 47.40615 | -120.45876 | 24473 ft | 328 kts | 98° |
| 2026-04-28 14:57 | 47.40416 | -120.43653 | 24608 ft | 331 kts | 100° |
| 2026-04-28 14:57 | 47.39873 | -120.39186 | 24877 ft | 337 kts | 103° |
| 2026-04-28 14:57 | 47.39381 | -120.35767 | 25080 ft | 342 kts | 104° |
| 2026-04-28 14:58 | 47.38847 | -120.32322 | 25283 ft | 346 kts | 105° |
| 2026-04-28 14:58 | 47.38282 | -120.28836 | 25489 ft | 350 kts | 105° |
| 2026-04-28 14:58 | 47.37708 | -120.25380 | 25736 ft | 352 kts | 105° |
| 2026-04-28 14:58 | 47.37115 | -120.21867 | 26008 ft | 352 kts | 106° |
| 2026-04-28 14:59 | 47.36518 | -120.18369 | 26276 ft | 352 kts | 106° |
| 2026-04-28 14:59 | 47.35917 | -120.14872 | 26531 ft | 352 kts | 107° |
| 2026-04-28 14:59 | 47.35311 | -120.11371 | 26781 ft | 351 kts | 107° |
| 2026-04-28 14:59 | 47.34705 | -120.07886 | 27015 ft | 351 kts | 107° |
| 2026-04-28 15:00 | 47.34097 | -120.04398 | 27242 ft | 351 kts | 107° |
| 2026-04-28 15:00 | 47.33489 | -120.00921 | 27467 ft | 350 kts | 107° |
| 2026-04-28 15:00 | 47.32886 | -119.97485 | 27690 ft | 349 kts | 107° |
| 2026-04-28 15:00 | 47.32274 | -119.94011 | 27915 ft | 349 kts | 107° |
| 2026-04-28 15:01 | 47.31667 | -119.90565 | 28160 ft | 347 kts | 107° |
| 2026-04-28 15:01 | 47.31056 | -119.87110 | 28449 ft | 350 kts | 108° |
| 2026-04-28 15:01 | 47.30440 | -119.83637 | 28748 ft | 352 kts | 108° |
| 2026-04-28 15:01 | 47.29817 | -119.80137 | 29049 ft | 353 kts | 108° |
| 2026-04-28 15:02 | 47.29194 | -119.76634 | 29350 ft | 354 kts | 108° |
| 2026-04-28 15:02 | 47.28568 | -119.73125 | 29652 ft | 354 kts | 108° |
| 2026-04-28 15:02 | 47.27943 | -119.69624 | 29952 ft | 353 kts | 108° |
| 2026-04-28 15:02 | 47.27317 | -119.66123 | 30252 ft | 353 kts | 108° |
| 2026-04-28 15:03 | 47.26689 | -119.62619 | 30553 ft | 352 kts | 108° |
| 2026-04-28 15:03 | 47.26072 | -119.59184 | 30848 ft | 352 kts | 108° |
| 2026-04-28 15:03 | 47.25447 | -119.55711 | 31147 ft | 351 kts | 108° |
| 2026-04-28 15:03 | 47.24820 | -119.52237 | 31447 ft | 350 kts | 108° |
| 2026-04-28 15:04 | 47.24196 | -119.48780 | 31746 ft | 349 kts | 108° |
| 2026-04-28 15:04 | 47.23571 | -119.45328 | 32046 ft | 348 kts | 108° |
| 2026-04-28 15:04 | 47.22947 | -119.41891 | 32345 ft | 347 kts | 108° |
| 2026-04-28 15:04 | 47.22324 | -119.38464 | 32644 ft | 346 kts | 108° |
| 2026-04-28 15:05 | 47.21737 | -119.35036 | 32943 ft | 346 kts | 107° |
| 2026-04-28 15:05 | 47.21204 | -119.31586 | 33242 ft | 345 kts | 105° |
| 2026-04-28 15:05 | 47.20700 | -119.28135 | 33542 ft | 344 kts | 105° |
| 2026-04-28 15:05 | 47.20213 | -119.24695 | 33835 ft | 343 kts | 105° |
| 2026-04-28 15:06 | 47.19734 | -119.21252 | 34065 ft | 344 kts | 105° |
| 2026-04-28 15:06 | 47.19258 | -119.17798 | 34271 ft | 345 kts | 104° |
| 2026-04-28 15:06 | 47.18788 | -119.14371 | 34467 ft | 347 kts | 104° |
| 2026-04-28 15:06 | 47.18310 | -119.10884 | 34617 ft | 349 kts | 104° |
| 2026-04-28 15:07 | 47.17827 | -119.07358 | 34700 ft | 353 kts | 104° |
| 2026-04-28 15:07 | 47.16842 | -119.00174 | 34722 ft | 364 kts | 104° |
| 2026-04-28 15:08 | 47.15827 | -118.92794 | 34721 ft | 372 kts | 104° |
| 2026-04-28 15:08 | 47.14795 | -118.85298 | 34721 ft | 379 kts | 104° |
| 2026-04-28 15:09 | 47.13743 | -118.77683 | 34720 ft | 381 kts | 104° |
| 2026-04-28 15:09 | 47.12688 | -118.70064 | 34720 ft | 381 kts | 104° |
| 2026-04-28 15:10 | 47.11627 | -118.62445 | 34720 ft | 381 kts | 104° |
| 2026-04-28 15:10 | 47.10558 | -118.54813 | 34720 ft | 381 kts | 104° |
| 2026-04-28 15:11 | 47.09490 | -118.47232 | 34720 ft | 381 kts | 104° |
| 2026-04-28 15:11 | 47.08408 | -118.39596 | 34720 ft | 381 kts | 104° |
| 2026-04-28 15:12 | 47.07508 | -118.33271 | 34719 ft | 381 kts | 105° |
| 2026-04-28 15:12 | 47.06242 | -118.24422 | 34716 ft | 381 kts | 105° |
| 2026-04-28 15:13 | 47.05148 | -118.16813 | 34713 ft | 381 kts | 105° |
| 2026-04-28 15:13 | 47.04048 | -118.09205 | 34713 ft | 382 kts | 105° |
| 2026-04-28 15:14 | 47.03128 | -118.02870 | 34713 ft | 382 kts | 105° |
| 2026-04-28 15:14 | 47.02017 | -117.95257 | 34712 ft | 382 kts | 105° |
| 2026-04-28 15:15 | 47.00901 | -117.87648 | 34712 ft | 382 kts | 105° |
| 2026-04-28 15:15 | 46.99778 | -117.80023 | 34712 ft | 383 kts | 105° |
| 2026-04-28 15:16 | 46.98647 | -117.72387 | 34710 ft | 383 kts | 105° |
| 2026-04-28 15:16 | 46.97518 | -117.64801 | 34710 ft | 383 kts | 105° |
| 2026-04-28 15:17 | 46.96377 | -117.57172 | 34710 ft | 383 kts | 105° |
| 2026-04-28 15:17 | 46.95230 | -117.49536 | 34710 ft | 383 kts | 105° |
| 2026-04-28 15:18 | 46.94084 | -117.41948 | 34710 ft | 384 kts | 105° |
| 2026-04-28 15:18 | 46.92927 | -117.34322 | 34709 ft | 384 kts | 105° |
| 2026-04-28 15:19 | 46.91763 | -117.26689 | 34709 ft | 384 kts | 105° |
| 2026-04-28 15:19 | 46.90595 | -117.19063 | 34709 ft | 384 kts | 105° |
| 2026-04-28 15:20 | 46.89429 | -117.11483 | 34709 ft | 384 kts | 105° |
| 2026-04-28 15:20 | 46.88250 | -117.03859 | 34708 ft | 384 kts | 105° |
| 2026-04-28 15:21 | 46.87064 | -116.96227 | 34709 ft | 385 kts | 105° |
| 2026-04-28 15:21 | 46.85875 | -116.88612 | 34709 ft | 385 kts | 106° |
| 2026-04-28 15:22 | 46.84679 | -116.80983 | 34709 ft | 385 kts | 106° |
| 2026-04-28 15:22 | 46.83477 | -116.73353 | 34710 ft | 385 kts | 106° |
| 2026-04-28 15:23 | 46.82270 | -116.65730 | 34711 ft | 385 kts | 106° |
| 2026-04-28 15:23 | 46.81064 | -116.58150 | 34711 ft | 386 kts | 106° |
| 2026-04-28 15:24 | 46.79846 | -116.50527 | 34712 ft | 386 kts | 106° |
| 2026-04-28 15:24 | 46.78623 | -116.42905 | 34712 ft | 386 kts | 106° |
| 2026-04-28 15:25 | 46.77393 | -116.35280 | 34713 ft | 386 kts | 106° |
| 2026-04-28 15:25 | 46.76156 | -116.27643 | 34713 ft | 386 kts | 106° |
| 2026-04-28 15:26 | 46.74916 | -116.20023 | 34708 ft | 386 kts | 106° |
| 2026-04-28 15:26 | 46.73670 | -116.12396 | 34708 ft | 386 kts | 106° |
| 2026-04-28 15:27 | 46.72420 | -116.04785 | 34717 ft | 386 kts | 106° |
| 2026-04-28 15:27 | 46.71172 | -115.97220 | 34718 ft | 386 kts | 106° |
| 2026-04-28 15:28 | 46.69910 | -115.89599 | 34719 ft | 386 kts | 106° |
| 2026-04-28 15:28 | 46.68641 | -115.81979 | 34720 ft | 387 kts | 106° |
| 2026-04-28 15:29 | 46.67368 | -115.74364 | 34721 ft | 387 kts | 106° |
| 2026-04-28 15:29 | 46.66100 | -115.66807 | 34721 ft | 387 kts | 107° |
| 2026-04-28 15:30 | 46.64816 | -115.59193 | 34719 ft | 387 kts | 107° |
| 2026-04-28 15:30 | 46.63526 | -115.51579 | 34719 ft | 388 kts | 107° |
| 2026-04-28 15:31 | 46.62227 | -115.43945 | 34720 ft | 388 kts | 107° |
| 2026-04-28 15:31 | 46.60926 | -115.36331 | 34721 ft | 388 kts | 107° |
| 2026-04-28 15:32 | 46.59619 | -115.28717 | 34721 ft | 388 kts | 107° |
| 2026-04-28 15:32 | 46.58313 | -115.21142 | 34722 ft | 388 kts | 107° |
| 2026-04-28 15:33 | 46.56995 | -115.13523 | 34723 ft | 388 kts | 107° |
| 2026-04-28 15:33 | 46.55669 | -115.05900 | 34725 ft | 389 kts | 107° |
| 2026-04-28 15:34 | 46.54346 | -114.98324 | 34726 ft | 389 kts | 107° |
| 2026-04-28 15:34 | 46.53009 | -114.90700 | 34732 ft | 389 kts | 107° |
| 2026-04-28 15:35 | 46.51668 | -114.83086 | 34730 ft | 389 kts | 107° |
| 2026-04-28 15:35 | 46.49650 | -114.71684 | 34732 ft | 390 kts | 108° |
| 2026-04-28 15:36 | 46.48294 | -114.64063 | 34734 ft | 390 kts | 108° |
| 2026-04-28 15:36 | 46.46931 | -114.56438 | 34736 ft | 390 kts | 108° |
| 2026-04-28 15:37 | 46.45562 | -114.48816 | 34738 ft | 390 kts | 108° |
| 2026-04-28 15:37 | 46.44423 | -114.42493 | 34740 ft | 390 kts | 108° |
| 2026-04-28 15:38 | 46.42823 | -114.33646 | 34735 ft | 390 kts | 108° |
| 2026-04-28 15:38 | 46.42130 | -114.29832 | 34616 ft | 393 kts | 108° |
| 2026-04-28 15:38 | 46.41424 | -114.25964 | 34309 ft | 400 kts | 108° |
| 2026-04-28 15:39 | 46.40711 | -114.22064 | 33946 ft | 399 kts | 108° |
| 2026-04-28 15:39 | 46.40003 | -114.18186 | 33573 ft | 397 kts | 108° |
| 2026-04-28 15:39 | 46.39298 | -114.14331 | 33199 ft | 396 kts | 108° |
| 2026-04-28 15:39 | 46.38593 | -114.10483 | 32824 ft | 394 kts | 108° |
| 2026-04-28 15:40 | 46.37887 | -114.06639 | 32448 ft | 394 kts | 108° |
| 2026-04-28 15:40 | 46.37183 | -114.02813 | 32073 ft | 392 kts | 108° |
| 2026-04-28 15:40 | 46.36480 | -113.98999 | 31697 ft | 390 kts | 108° |
| 2026-04-28 15:40 | 46.35792 | -113.95269 | 31326 ft | 386 kts | 109° |
| 2026-04-28 15:41 | 46.35099 | -113.91524 | 30952 ft | 384 kts | 109° |
| 2026-04-28 15:41 | 46.34410 | -113.87810 | 30577 ft | 381 kts | 109° |
| 2026-04-28 15:41 | 46.33722 | -113.84105 | 30201 ft | 379 kts | 109° |
| 2026-04-28 15:41 | 46.33037 | -113.80431 | 29825 ft | 376 kts | 109° |
| 2026-04-28 15:42 | 46.32359 | -113.76797 | 29450 ft | 374 kts | 109° |
| 2026-04-28 15:42 | 46.31679 | -113.73168 | 29073 ft | 372 kts | 109° |
| 2026-04-28 15:42 | 46.31001 | -113.69557 | 28698 ft | 372 kts | 109° |
| 2026-04-28 15:42 | 46.30321 | -113.65947 | 28322 ft | 372 kts | 109° |
| 2026-04-28 15:43 | 46.29647 | -113.62376 | 27952 ft | 372 kts | 109° |
| 2026-04-28 15:43 | 46.28965 | -113.58766 | 27578 ft | 372 kts | 109° |
| 2026-04-28 15:43 | 46.28280 | -113.55151 | 27203 ft | 373 kts | 109° |
| 2026-04-28 15:43 | 46.27593 | -113.51531 | 26828 ft | 374 kts | 109° |
| 2026-04-28 15:44 | 46.26905 | -113.47907 | 26453 ft | 375 kts | 108° |
| 2026-04-28 15:44 | 46.26213 | -113.44272 | 26078 ft | 375 kts | 108° |
| 2026-04-28 15:44 | 46.25518 | -113.40630 | 25704 ft | 376 kts | 108° |
| 2026-04-28 15:44 | 46.24821 | -113.36978 | 25330 ft | 377 kts | 108° |
| 2026-04-28 15:45 | 46.24121 | -113.33320 | 24955 ft | 378 kts | 108° |
| 2026-04-28 15:45 | 46.23418 | -113.29657 | 24580 ft | 379 kts | 108° |
| 2026-04-28 15:45 | 46.22718 | -113.26006 | 24205 ft | 375 kts | 108° |
| 2026-04-28 15:45 | 46.22025 | -113.22392 | 23828 ft | 371 kts | 108° |
| 2026-04-28 15:46 | 46.21337 | -113.18818 | 23452 ft | 368 kts | 108° |
| 2026-04-28 15:46 | 46.20651 | -113.15256 | 23076 ft | 367 kts | 108° |
| 2026-04-28 15:46 | 46.19964 | -113.11706 | 22700 ft | 367 kts | 108° |
| 2026-04-28 15:46 | 46.19281 | -113.08181 | 22325 ft | 362 kts | 108° |
| 2026-04-28 15:47 | 46.18617 | -113.04751 | 21954 ft | 357 kts | 108° |
| 2026-04-28 15:47 | 46.17951 | -113.01322 | 21578 ft | 353 kts | 108° |
| 2026-04-28 15:47 | 46.17288 | -112.97917 | 21201 ft | 350 kts | 108° |
| 2026-04-28 15:47 | 46.16630 | -112.94546 | 20825 ft | 347 kts | 108° |
| 2026-04-28 15:48 | 46.15977 | -112.91209 | 20450 ft | 345 kts | 108° |
| 2026-04-28 15:48 | 46.15327 | -112.87889 | 20074 ft | 342 kts | 108° |
| 2026-04-28 15:48 | 46.14682 | -112.84602 | 19698 ft | 340 kts | 108° |
| 2026-04-28 15:48 | 46.14040 | -112.81337 | 19323 ft | 337 kts | 107° |
| 2026-04-28 15:49 | 46.13399 | -112.78083 | 18946 ft | 335 kts | 107° |
| 2026-04-28 15:49 | 46.12765 | -112.74868 | 18571 ft | 333 kts | 107° |
| 2026-04-28 15:49 | 46.12132 | -112.71666 | 18195 ft | 331 kts | 107° |
| 2026-04-28 15:49 | 46.11503 | -112.68488 | 17820 ft | 329 kts | 107° |
| 2026-04-28 15:50 | 46.10882 | -112.65356 | 17448 ft | 328 kts | 108° |
| 2026-04-28 15:50 | 46.10256 | -112.62198 | 17072 ft | 327 kts | 108° |
| 2026-04-28 15:50 | 46.09630 | -112.59049 | 16697 ft | 326 kts | 108° |
| 2026-04-28 15:50 | 46.09007 | -112.55920 | 16321 ft | 322 kts | 108° |
| 2026-04-28 15:51 | 46.08389 | -112.52818 | 15944 ft | 320 kts | 108° |
| 2026-04-28 15:51 | 46.07776 | -112.49747 | 15567 ft | 317 kts | 108° |
| 2026-04-28 15:51 | 46.07168 | -112.46709 | 15193 ft | 314 kts | 109° |
| 2026-04-28 15:51 | 46.06572 | -112.43733 | 14822 ft | 312 kts | 109° |
| 2026-04-28 15:52 | 46.05970 | -112.40728 | 14444 ft | 311 kts | 109° |
| 2026-04-28 15:52 | 46.05372 | -112.37742 | 14068 ft | 310 kts | 109° |
| 2026-04-28 15:52 | 46.04781 | -112.34777 | 13695 ft | 307 kts | 109° |
| 2026-04-28 15:52 | 46.04196 | -112.31823 | 13317 ft | 304 kts | 110° |
| 2026-04-28 15:53 | 46.03608 | -112.28911 | 12948 ft | 302 kts | 110° |
| 2026-04-28 15:53 | 46.03032 | -112.26041 | 12587 ft | 302 kts | 110° |
| 2026-04-28 15:53 | 46.02449 | -112.23141 | 12209 ft | 301 kts | 110° |
| 2026-04-28 15:53 | 46.01859 | -112.20243 | 11834 ft | 301 kts | 110° |
| 2026-04-28 15:54 | 46.01259 | -112.17360 | 11460 ft | 301 kts | 110° |
| 2026-04-28 15:54 | 46.00667 | -112.14474 | 11088 ft | 299 kts | 109° |
| 2026-04-28 15:54 | 46.00082 | -112.11608 | 10711 ft | 298 kts | 109° |
| 2026-04-28 15:54 | 45.99501 | -112.08760 | 10336 ft | 297 kts | 108° |
| 2026-04-28 15:55 | 45.99015 | -112.05898 | 10127 ft | 291 kts | 104° |
| 2026-04-28 15:55 | 45.98634 | -112.03081 | 10039 ft | 283 kts | 102° |
| 2026-04-28 15:55 | 45.98330 | -112.00330 | 10006 ft | 275 kts | 100° |
| 2026-04-28 15:55 | 45.98080 | -111.97670 | 9999 ft | 268 kts | 99° |
| 2026-04-28 15:56 | 45.97861 | -111.95031 | 10000 ft | 263 kts | 98° |
| 2026-04-28 15:56 | 45.97663 | -111.92432 | 10004 ft | 259 kts | 98° |
| 2026-04-28 15:56 | 45.97481 | -111.89889 | 10001 ft | 254 kts | 98° |
| 2026-04-28 15:56 | 45.97308 | -111.87385 | 9994 ft | 250 kts | 97° |
| 2026-04-28 15:57 | 45.97141 | -111.84917 | 9992 ft | 246 kts | 97° |
| 2026-04-28 15:57 | 45.96977 | -111.82487 | 9991 ft | 242 kts | 97° |
| 2026-04-28 15:57 | 45.96817 | -111.80086 | 9992 ft | 239 kts | 97° |
| 2026-04-28 15:57 | 45.96659 | -111.77728 | 9991 ft | 234 kts | 97° |
| 2026-04-28 15:58 | 45.96504 | -111.75415 | 9992 ft | 231 kts | 97° |
| 2026-04-28 15:58 | 45.96352 | -111.73162 | 9993 ft | 228 kts | 98° |
| 2026-04-28 15:58 | 45.96198 | -111.70893 | 9993 ft | 226 kts | 98° |
| 2026-04-28 15:58 | 45.96051 | -111.68739 | 9994 ft | 225 kts | 98° |
| 2026-04-28 15:59 | 45.95899 | -111.66506 | 9994 ft | 223 kts | 98° |
| 2026-04-28 15:59 | 45.95800 | -111.65054 | 9993 ft | 218 kts | 98° |
| 2026-04-28 15:59 | 45.95605 | -111.62196 | 9998 ft | 212 kts | 98° |
| 2026-04-28 15:59 | 45.95461 | -111.60102 | 9878 ft | 213 kts | 98° |
| 2026-04-28 16:00 | 45.95315 | -111.57994 | 9754 ft | 213 kts | 98° |
| 2026-04-28 16:00 | 45.95199 | -111.55893 | 9628 ft | 208 kts | 94° |
| 2026-04-28 16:00 | 45.95204 | -111.53844 | 9499 ft | 202 kts | 90° |
| 2026-04-28 16:00 | 45.95251 | -111.52519 | 9414 ft | 199 kts | 88° |
| 2026-04-28 16:01 | 45.95358 | -111.50553 | 9263 ft | 196 kts | 86° |
| 2026-04-28 16:01 | 45.95489 | -111.48602 | 9038 ft | 195 kts | 85° |
| 2026-04-28 16:01 | 45.95633 | -111.46645 | 8814 ft | 197 kts | 85° |
| 2026-04-28 16:01 | 45.95784 | -111.44685 | 8590 ft | 198 kts | 85° |
| 2026-04-28 16:02 | 45.95919 | -111.42713 | 8362 ft | 197 kts | 91° |
| 2026-04-28 16:02 | 45.95564 | -111.40848 | 8177 ft | 192 kts | 119° |
| 2026-04-28 16:02 | 45.94824 | -111.39282 | 8055 ft | 187 kts | 130° |
| 2026-04-28 16:02 | 45.93978 | -111.37910 | 8009 ft | 179 kts | 134° |
| 2026-04-28 16:03 | 45.93141 | -111.36682 | 7996 ft | 172 kts | 136° |
| 2026-04-28 16:03 | 45.92277 | -111.35460 | 7791 ft | 174 kts | 136° |
| 2026-04-28 16:03 | 45.91436 | -111.34282 | 7549 ft | 170 kts | 136° |
| 2026-04-28 16:03 | 45.90577 | -111.33082 | 7320 ft | 169 kts | 136° |
| 2026-04-28 16:04 | 45.89733 | -111.31902 | 7075 ft | 170 kts | 136° |
| 2026-04-28 16:04 | 45.88882 | -111.30711 | 6827 ft | 171 kts | 136° |
| 2026-04-28 16:04 | 45.88032 | -111.29520 | 6577 ft | 171 kts | 136° |
| 2026-04-28 16:04 | 45.87176 | -111.28318 | 6329 ft | 173 kts | 136° |
| 2026-04-28 16:05 | 45.86322 | -111.27116 | 6140 ft | 170 kts | 136° |
| 2026-04-28 16:05 | 45.85487 | -111.25940 | 6032 ft | 165 kts | 136° |
| 2026-04-28 16:05 | 45.84679 | -111.24803 | 6003 ft | 159 kts | 136° |
| 2026-04-28 16:05 | 45.83902 | -111.23709 | 5998 ft | 154 kts | 136° |
| 2026-04-28 16:06 | 45.83155 | -111.22659 | 5998 ft | 151 kts | 136° |
| 2026-04-28 16:06 | 45.82408 | -111.21612 | 5943 ft | 150 kts | 136° |
| 2026-04-28 16:06 | 45.81661 | -111.20596 | 5713 ft | 147 kts | 138° |
| 2026-04-28 16:06 | 45.80911 | -111.19604 | 5428 ft | 146 kts | 139° |
| 2026-04-28 16:07 | 45.80167 | -111.18590 | 5097 ft | 149 kts | 135° |
| 2026-04-28 16:07 | 45.79450 | -111.17558 | 4759 ft | 141 kts | 137° |
| 2026-04-28 16:07 | 45.78314 | -111.15980 | 4475 ft | 36 kts | 135° |
| 2026-04-28 16:08 | 45.78132 | -111.15723 | 4475 ft | 36 kts | 138° |
| 2026-04-28 16:08 | 45.78018 | -111.15571 | 4475 ft | 18 kts | 134° |
| 2026-04-28 16:08 | 45.77930 | -111.15522 | 4475 ft | 13 kts | 222° |
| 2026-04-28 16:09 | 45.77849 | -111.15734 | 4475 ft | 12 kts | 230° |
| 2026-04-28 16:09 | 45.77793 | -111.15817 | 4475 ft | 12 kts | 221° |
| 2026-04-28 16:09 | 45.77751 | -111.15802 | 4475 ft | 0 kts | 139° |